You are listening to:
CYQT Ground/Tower - Thunder Bay, Ontario, Canada

CYQT 171300Z 36005KT 20SM BKN027 BKN080 15/11 A3001 RMK SC6AC1 WIND EST SLP166

If stream doesn't start automatically press the play button
If stream stops then reload player then press play